createdAt,value
2018-07-26T00:02:26.613Z,19.90
2018-07-26T00:04:54.890Z,19.90
2018-07-26T00:07:23.235Z,20.00
2018-07-26T00:09:51.519Z,20.00
2018-07-26T00:12:19.823Z,20.00
2018-07-26T00:14:48.148Z,19.90
2018-07-26T00:17:16.460Z,19.80
2018-07-26T00:19:44.707Z,19.80
2018-07-26T00:22:13.002Z,19.80
2018-07-26T00:24:41.281Z,19.80
2018-07-26T00:27:09.550Z,19.80
2018-07-26T00:29:37.842Z,19.90
2018-07-26T00:32:06.197Z,20.00
2018-07-26T00:34:34.438Z,19.90
2018-07-26T00:37:02.683Z,19.80
2018-07-26T00:39:31.008Z,19.80
2018-07-26T00:41:59.265Z,19.80
2018-07-26T00:44:27.560Z,19.80
2018-07-26T00:46:55.850Z,19.80
2018-07-26T00:49:24.091Z,19.80
2018-07-26T00:51:52.346Z,19.90
2018-07-26T00:54:20.669Z,19.80
2018-07-26T00:56:48.984Z,19.80
2018-07-26T00:59:17.274Z,19.80
2018-07-26T01:01:45.545Z,19.80
2018-07-26T01:04:13.839Z,19.80
2018-07-26T01:06:42.197Z,19.80
2018-07-26T01:09:11.591Z,19.80
2018-07-26T01:11:40.275Z,19.80
2018-07-26T01:14:08.643Z,19.80
2018-07-26T01:16:36.954Z,19.70
2018-07-26T01:19:05.656Z,19.70
2018-07-26T01:21:34.592Z,19.70
2018-07-26T01:24:03.049Z,19.70
2018-07-26T01:26:31.416Z,19.80
2018-07-26T01:28:59.740Z,19.80
2018-07-26T01:31:28.042Z,19.70
2018-07-26T01:33:57.186Z,19.70
2018-07-26T01:36:25.472Z,19.80
2018-07-26T01:38:53.775Z,19.80
2018-07-26T01:41:22.090Z,19.80
2018-07-26T01:44:01.770Z,19.80
2018-07-26T01:46:30.013Z,19.80
2018-07-26T01:48:58.347Z,19.70
2018-07-26T01:51:26.711Z,19.60
2018-07-26T01:53:55.053Z,19.70
2018-07-26T01:58:51.421Z,19.70
2018-07-26T02:01:19.696Z,19.70
2018-07-26T02:03:47.981Z,19.60
2018-07-26T02:06:16.201Z,19.60
2018-07-26T02:08:44.525Z,19.50
2018-07-26T02:11:12.763Z,19.50
2018-07-26T02:13:41.080Z,19.40
2018-07-26T02:16:09.507Z,19.40
2018-07-26T02:18:37.718Z,19.40
2018-07-26T02:21:06.061Z,19.40
2018-07-26T02:23:34.419Z,19.50
2018-07-26T02:26:02.755Z,19.40
2018-07-26T02:28:31.022Z,19.40
2018-07-26T02:30:59.446Z,19.40
2018-07-26T02:33:27.796Z,19.40
2018-07-26T02:35:56.131Z,19.40
2018-07-26T02:38:24.464Z,19.40
2018-07-26T02:40:52.738Z,19.30
2018-07-26T02:43:21.128Z,19.30
2018-07-26T02:45:49.404Z,19.20
2018-07-26T02:48:17.785Z,19.20
2018-07-26T02:50:46.160Z,19.10
2018-07-26T02:53:14.407Z,19.10
2018-07-26T02:55:42.757Z,19.00
2018-07-26T02:58:11.052Z,19.00
2018-07-26T03:00:39.286Z,19.00
2018-07-26T03:03:07.602Z,19.00
2018-07-26T03:05:36.443Z,19.00
2018-07-26T03:08:04.745Z,19.00
2018-07-26T03:10:33.032Z,19.00
2018-07-26T03:13:01.401Z,19.10
2018-07-26T03:15:38.367Z,19.00
2018-07-26T03:18:06.681Z,19.00
2018-07-26T03:20:34.954Z,18.80
2018-07-26T03:23:03.186Z,18.90
2018-07-26T03:25:31.595Z,18.90
2018-07-26T03:27:59.921Z,18.90
2018-07-26T03:30:28.227Z,18.90
2018-07-26T03:32:56.550Z,18.90
2018-07-26T03:35:24.872Z,18.80
2018-07-26T03:37:53.189Z,18.80
2018-07-26T03:40:21.503Z,18.90
2018-07-26T03:42:49.900Z,18.90
2018-07-26T03:45:18.186Z,18.90
2018-07-26T03:47:46.489Z,18.90
2018-07-26T03:50:14.889Z,18.90
2018-07-26T03:52:43.197Z,18.90
2018-07-26T03:55:11.513Z,18.90
2018-07-26T03:57:39.825Z,18.90
2018-07-26T04:00:08.221Z,18.80
2018-07-26T04:02:36.522Z,18.80
2018-07-26T04:05:04.844Z,18.70
2018-07-26T04:07:33.755Z,18.60
2018-07-26T04:10:02.098Z,18.60
2018-07-26T04:12:30.403Z,18.60
2018-07-26T04:14:58.678Z,18.60
2018-07-26T04:17:27.066Z,18.60
2018-07-26T04:19:55.359Z,18.70
2018-07-26T04:22:23.755Z,18.70
2018-07-26T04:24:51.996Z,18.70
2018-07-26T04:27:20.289Z,18.80
2018-07-26T04:29:48.594Z,18.70
2018-07-26T04:32:17.101Z,18.70
2018-07-26T04:34:45.309Z,18.70
2018-07-26T04:37:13.607Z,18.60
2018-07-26T04:39:41.902Z,18.70
2018-07-26T04:44:38.151Z,18.80
2018-07-26T04:47:06.470Z,18.90
2018-07-26T04:49:34.736Z,18.90
2018-07-26T04:52:03.037Z,18.90
2018-07-26T04:54:31.396Z,18.90
2018-07-26T04:56:59.656Z,18.90
2018-07-26T04:59:28.003Z,18.90
2018-07-26T05:01:56.395Z,18.90
2018-07-26T05:04:24.647Z,19.00
2018-07-26T05:06:52.951Z,18.90
2018-07-26T05:09:21.282Z,18.90
2018-07-26T05:11:49.493Z,18.90
2018-07-26T05:14:17.852Z,18.90
2018-07-26T05:16:46.215Z,19.10
2018-07-26T05:19:14.552Z,19.10
2018-07-26T05:21:42.873Z,19.20
2018-07-26T05:24:11.173Z,19.20
2018-07-26T05:26:39.874Z,19.20
2018-07-26T05:29:08.227Z,19.30
2018-07-26T05:34:04.565Z,19.50
2018-07-26T05:36:32.820Z,19.60
2018-07-26T05:39:01.184Z,19.80
2018-07-26T05:41:29.554Z,19.90
2018-07-26T05:43:57.866Z,19.90
2018-07-26T05:46:26.254Z,20.00
2018-07-26T05:48:54.594Z,20.10
2018-07-26T05:51:22.939Z,20.20
2018-07-26T05:53:51.295Z,20.40
2018-07-26T05:56:19.589Z,20.40
2018-07-26T05:58:47.897Z,20.40
2018-07-26T06:01:16.224Z,20.50
2018-07-26T06:03:44.511Z,20.50
2018-07-26T06:08:40.950Z,20.70
2018-07-26T06:11:09.316Z,20.80
2018-07-26T06:13:37.593Z,20.90
2018-07-26T06:16:06.189Z,21.10
2018-07-26T06:18:34.482Z,21.20
2018-07-26T06:21:02.844Z,21.30
2018-07-26T06:23:31.250Z,21.50
2018-07-26T06:25:59.564Z,21.60
2018-07-26T06:28:27.849Z,21.70
2018-07-26T06:30:56.147Z,21.80
2018-07-26T06:33:24.605Z,22.00
2018-07-26T06:35:52.799Z,22.10
2018-07-26T06:38:21.051Z,22.20
2018-07-26T06:40:49.349Z,22.30
2018-07-26T06:43:17.598Z,22.30
2018-07-26T06:45:45.927Z,22.40
2018-07-26T06:48:14.258Z,22.50
2018-07-26T06:50:42.628Z,22.60
2018-07-26T06:53:11.076Z,22.70
2018-07-26T06:55:39.318Z,22.90
2018-07-26T06:58:07.660Z,23.00
2018-07-26T07:00:35.921Z,23.00
2018-07-26T07:03:04.226Z,23.10
2018-07-26T07:05:32.507Z,23.30
2018-07-26T07:08:00.828Z,23.40
2018-07-26T07:10:29.233Z,23.60
2018-07-26T07:12:57.536Z,23.80
2018-07-26T07:15:25.890Z,24.00
2018-07-26T07:17:54.325Z,24.10
2018-07-26T07:20:22.654Z,24.20
2018-07-26T07:22:50.949Z,24.30
2018-07-26T07:25:19.232Z,24.50
2018-07-26T07:27:47.614Z,24.70
2018-07-26T07:30:15.969Z,24.90
2018-07-26T07:32:44.309Z,25.00
2018-07-26T07:35:12.746Z,25.00
2018-07-26T07:40:09.954Z,25.20
2018-07-26T07:42:38.591Z,25.30
2018-07-26T07:45:07.672Z,25.30
2018-07-26T07:47:36.248Z,25.50
2018-07-26T07:50:05.048Z,25.50
2018-07-26T07:52:33.483Z,25.70
2018-07-26T07:55:01.804Z,25.70
2018-07-26T07:57:30.159Z,25.90
2018-07-26T07:59:58.495Z,25.90
2018-07-26T08:02:26.917Z,26.00
2018-07-26T08:04:55.324Z,26.10
2018-07-26T08:07:23.834Z,26.20
2018-07-26T08:09:52.478Z,26.30
2018-07-26T08:12:21.225Z,26.30
2018-07-26T08:14:49.528Z,26.40
2018-07-26T08:17:18.070Z,26.60
2018-07-26T08:19:46.440Z,26.70
2018-07-26T08:22:14.894Z,26.70
2018-07-26T08:24:43.248Z,26.70
2018-07-26T08:27:11.656Z,26.70
2018-07-26T08:29:39.907Z,26.90
2018-07-26T08:32:08.359Z,26.90
2018-07-26T08:34:36.648Z,26.90
2018-07-26T08:37:05.177Z,27.00
2018-07-26T08:39:33.602Z,27.10
2018-07-26T08:42:02.075Z,27.30
2018-07-26T08:44:30.484Z,27.30
2018-07-26T08:46:58.913Z,27.30
2018-07-26T08:49:27.274Z,27.20
2018-07-26T08:51:55.650Z,27.30
2018-07-26T08:54:24.226Z,27.30
2018-07-26T08:56:52.622Z,27.50
2018-07-26T08:59:21.040Z,27.40
2018-07-26T09:01:49.408Z,27.50
2018-07-26T09:04:17.721Z,27.60
2018-07-26T09:06:46.322Z,27.50
2018-07-26T09:09:14.666Z,27.60
2018-07-26T09:11:43.008Z,27.70
2018-07-26T09:14:11.358Z,27.80
2018-07-26T09:16:39.736Z,27.90
2018-07-26T09:19:08.427Z,28.00
2018-07-26T09:21:37.101Z,28.10
2018-07-26T09:26:34.123Z,28.20
2018-07-26T09:29:02.423Z,28.40
2018-07-26T09:31:30.752Z,28.40
2018-07-26T09:33:59.105Z,28.50
2018-07-26T09:36:27.460Z,28.60
2018-07-26T09:38:55.786Z,28.70
2018-07-26T09:41:24.197Z,28.80
2018-07-26T09:43:52.478Z,28.80
2018-07-26T09:46:20.757Z,28.90
2018-07-26T09:48:49.149Z,28.90
2018-07-26T09:51:17.482Z,29.00
2018-07-26T09:53:46.042Z,29.10
2018-07-26T09:56:14.423Z,29.10
2018-07-26T09:58:42.756Z,29.20
2018-07-26T10:01:16.388Z,29.40
2018-07-26T10:03:44.637Z,29.40
2018-07-26T10:06:13.058Z,29.60
2018-07-26T10:08:41.375Z,29.60
2018-07-26T10:11:09.719Z,29.70
2018-07-26T10:13:37.936Z,29.80
2018-07-26T10:16:06.186Z,29.90
2018-07-26T10:18:34.537Z,30.00
2018-07-26T10:21:02.819Z,30.00
2018-07-26T10:23:31.077Z,30.10
2018-07-26T10:25:59.360Z,30.20
2018-07-26T10:28:27.684Z,30.10
2018-07-26T10:30:56.022Z,30.10
2018-07-26T10:33:24.306Z,30.30
2018-07-26T10:35:52.638Z,30.40
2018-07-26T10:38:21.251Z,30.50
2018-07-26T10:40:49.530Z,30.40
2018-07-26T10:43:17.880Z,30.60
2018-07-26T10:45:46.187Z,30.70
2018-07-26T10:48:14.478Z,30.70
2018-07-26T10:50:42.863Z,30.60
2018-07-26T10:53:11.261Z,30.70
2018-07-26T10:55:39.573Z,30.80
2018-07-26T10:58:07.821Z,31.00
2018-07-26T11:00:36.101Z,31.20
2018-07-26T11:03:04.372Z,31.30
2018-07-26T11:05:33.665Z,31.30
2018-07-26T11:08:02.013Z,31.40
2018-07-26T11:10:30.396Z,31.60
2018-07-26T11:12:58.692Z,31.50
2018-07-26T11:15:29.032Z,31.40
2018-07-26T11:17:57.628Z,31.20
2018-07-26T11:20:25.990Z,31.30
2018-07-26T11:22:54.291Z,31.50
2018-07-26T11:25:22.564Z,31.60
2018-07-26T11:27:50.855Z,31.80
2018-07-26T11:30:19.300Z,31.90
2018-07-26T11:32:47.636Z,32.10
2018-07-26T11:35:15.958Z,32.20
2018-07-26T11:40:12.235Z,32.20
2018-07-26T11:42:40.607Z,32.20
2018-07-26T11:45:09.948Z,32.30
2018-07-26T11:47:38.926Z,32.40
2018-07-26T11:50:08.115Z,32.60
2018-07-26T11:52:36.585Z,32.60
2018-07-26T11:55:05.130Z,32.70
2018-07-26T11:57:33.651Z,33.00
2018-07-26T12:00:02.403Z,33.00
2018-07-26T12:02:30.659Z,33.20
2018-07-26T12:07:27.128Z,33.60
2018-07-26T12:09:55.410Z,33.70
2018-07-26T12:12:23.777Z,33.60
2018-07-26T12:14:52.090Z,33.40
2018-07-26T12:17:20.374Z,33.20
2018-07-26T12:19:51.650Z,33.30
2018-07-26T12:22:19.858Z,33.30
2018-07-26T12:24:48.191Z,33.50
2018-07-26T12:27:16.456Z,33.40
2018-07-26T12:29:44.753Z,33.50
2018-07-26T12:32:13.022Z,33.60
2018-07-26T12:34:41.268Z,33.80
2018-07-26T12:37:09.541Z,33.80
2018-07-26T12:39:37.795Z,34.00
2018-07-26T12:42:06.095Z,34.00
2018-07-26T12:44:34.348Z,34.20
2018-07-26T12:47:02.671Z,34.30
2018-07-26T12:49:30.921Z,34.60
2018-07-26T12:51:59.187Z,34.90
2018-07-26T12:54:27.474Z,35.10
2018-07-26T12:56:55.748Z,35.20
2018-07-26T12:59:24.007Z,35.40
2018-07-26T13:01:52.280Z,35.10
2018-07-26T13:04:20.480Z,35.20
2018-07-26T13:06:48.848Z,35.30
2018-07-26T13:09:17.123Z,35.40
2018-07-26T13:11:45.468Z,35.40
2018-07-26T13:14:13.827Z,35.40
2018-07-26T13:16:42.096Z,35.40
2018-07-26T13:19:10.346Z,35.30
2018-07-26T13:21:38.705Z,35.40
2018-07-26T13:24:07.118Z,35.40
2018-07-26T13:26:35.483Z,35.50
2018-07-26T13:29:03.770Z,35.30
2018-07-26T13:31:32.147Z,35.20
2018-07-26T13:34:00.448Z,35.30
2018-07-26T13:36:28.787Z,35.40
2018-07-26T13:38:57.134Z,35.30
2018-07-26T13:41:25.373Z,35.20
2018-07-26T13:43:53.781Z,35.30
2018-07-26T13:46:22.225Z,35.30
2018-07-26T13:48:50.513Z,35.30
2018-07-26T13:51:18.769Z,35.30
2018-07-26T13:53:47.043Z,35.40
2018-07-26T13:56:15.280Z,35.40
2018-07-26T13:58:43.607Z,35.50
2018-07-26T14:01:11.892Z,35.40
2018-07-26T14:03:40.213Z,35.20
2018-07-26T14:06:08.570Z,35.10
2018-07-26T14:08:36.890Z,35.10
2018-07-26T14:11:05.175Z,35.20
2018-07-26T14:13:33.445Z,35.10
2018-07-26T14:16:02.076Z,34.90
2018-07-26T14:18:30.248Z,34.90
2018-07-26T14:20:58.538Z,35.00
2018-07-26T14:23:32.153Z,35.20
2018-07-26T14:26:00.490Z,35.20
2018-07-26T14:28:28.763Z,35.40
2018-07-26T14:30:57.060Z,35.50
2018-07-26T14:33:25.355Z,35.60
2018-07-26T14:35:53.623Z,35.70
2018-07-26T14:38:21.950Z,35.80
2018-07-26T14:40:50.285Z,35.80
2018-07-26T14:43:18.639Z,35.60
2018-07-26T14:45:47.017Z,35.50
2018-07-26T14:48:15.310Z,35.40
2018-07-26T14:50:43.531Z,35.50
2018-07-26T14:53:11.845Z,35.50
2018-07-26T14:55:40.200Z,35.50
2018-07-26T14:58:08.486Z,35.50
2018-07-26T15:00:36.883Z,35.60
2018-07-26T15:03:05.305Z,35.60
2018-07-26T15:05:33.618Z,35.80
2018-07-26T15:08:01.958Z,35.90
2018-07-26T15:10:30.397Z,35.80
2018-07-26T15:12:58.719Z,36.10
2018-07-26T15:15:27.043Z,36.50
2018-07-26T15:17:55.330Z,36.40
2018-07-26T15:20:23.654Z,36.60
2018-07-26T15:22:51.969Z,36.80
2018-07-26T15:25:26.137Z,36.80
2018-07-26T15:27:58.547Z,36.90
2018-07-26T15:30:27.551Z,37.50
2018-07-26T15:32:55.883Z,37.70
2018-07-26T15:35:24.159Z,37.60
2018-07-26T15:37:52.778Z,37.00
2018-07-26T15:40:20.789Z,36.40
2018-07-26T15:42:49.074Z,36.20
2018-07-26T15:45:17.363Z,36.50
2018-07-26T15:47:45.752Z,37.10
2018-07-26T15:50:14.067Z,37.40
2018-07-26T15:52:42.453Z,37.80
2018-07-26T15:55:10.747Z,38.10
2018-07-26T15:57:39.045Z,37.80
2018-07-26T16:00:10.248Z,37.20
2018-07-26T16:02:38.562Z,36.90
2018-07-26T16:05:07.535Z,36.50
2018-07-26T16:07:36.395Z,36.00
2018-07-26T16:10:05.430Z,35.60
2018-07-26T16:12:33.796Z,35.20
2018-07-26T16:15:02.074Z,34.80
2018-07-26T16:17:30.652Z,34.50
2018-07-26T16:19:58.897Z,34.20
2018-07-26T16:22:27.253Z,34.00
2018-07-26T16:24:55.551Z,33.70
2018-07-26T16:27:23.910Z,33.50
2018-07-26T16:29:52.135Z,33.30
2018-07-26T16:32:20.466Z,33.00
2018-07-26T16:34:48.752Z,32.90
2018-07-26T16:37:17.066Z,32.80
2018-07-26T16:39:45.482Z,32.70
2018-07-26T16:42:13.718Z,32.50
2018-07-26T16:44:42.003Z,32.30
2018-07-26T16:47:10.287Z,32.20
2018-07-26T16:49:38.610Z,32.20
2018-07-26T16:52:07.008Z,32.00
2018-07-26T16:54:35.363Z,31.90
2018-07-26T16:57:03.656Z,31.80
2018-07-26T16:59:32.136Z,31.60
2018-07-26T17:02:00.486Z,31.60
2018-07-26T17:04:28.756Z,31.50
2018-07-26T17:06:57.009Z,31.30
2018-07-26T17:09:25.283Z,31.20
2018-07-26T17:11:53.617Z,31.00
2018-07-26T17:14:21.914Z,30.90
2018-07-26T17:16:50.200Z,30.90
2018-07-26T17:19:18.476Z,30.80
2018-07-26T17:21:46.780Z,30.70
2018-07-26T17:24:16.125Z,30.70
2018-07-26T17:26:44.438Z,30.70
2018-07-26T17:29:12.829Z,30.70
2018-07-26T17:31:41.005Z,30.80
2018-07-26T17:34:09.329Z,30.70
2018-07-26T17:36:37.602Z,30.70
2018-07-26T17:39:07.734Z,30.70
2018-07-26T17:41:36.095Z,30.60
2018-07-26T17:44:04.412Z,30.60
2018-07-26T17:46:32.693Z,30.60
2018-07-26T17:49:01.006Z,30.60
2018-07-26T17:51:29.443Z,30.60
2018-07-26T17:53:57.775Z,30.80
2018-07-26T17:56:26.099Z,30.80
2018-07-26T17:58:54.387Z,30.70
2018-07-26T18:01:22.670Z,30.60
2018-07-26T18:03:50.966Z,30.60
2018-07-26T18:06:19.346Z,30.60
2018-07-26T18:08:47.609Z,30.60
2018-07-26T18:11:15.885Z,30.60
2018-07-26T18:13:44.187Z,30.40
2018-07-26T18:16:12.599Z,30.20
2018-07-26T18:18:40.960Z,30.10
2018-07-26T18:21:09.270Z,30.00
2018-07-26T18:23:37.750Z,29.90
2018-07-26T18:26:06.106Z,29.80
2018-07-26T18:28:34.387Z,29.80
2018-07-26T18:31:02.616Z,29.70
2018-07-26T18:33:31.042Z,29.80
2018-07-26T18:35:59.377Z,29.80
2018-07-26T18:38:27.702Z,29.80
2018-07-26T18:40:55.919Z,29.80
2018-07-26T18:43:24.285Z,29.70
2018-07-26T18:45:52.603Z,29.60
2018-07-26T18:48:20.890Z,29.50
2018-07-26T18:50:49.279Z,29.40
2018-07-26T18:53:23.993Z,29.10
2018-07-26T18:55:52.283Z,28.70
2018-07-26T18:58:20.642Z,28.60
2018-07-26T19:00:49.010Z,28.40
2018-07-26T19:03:17.403Z,28.30
2018-07-26T19:05:45.806Z,28.00
2018-07-26T19:08:14.201Z,27.90
2018-07-26T19:10:42.582Z,27.80
2018-07-26T19:13:10.911Z,27.60
2018-07-26T19:15:39.340Z,27.40
2018-07-26T19:18:07.739Z,27.30
2018-07-26T19:20:36.157Z,27.10
2018-07-26T19:23:04.635Z,27.00
2018-07-26T19:25:32.927Z,26.90
2018-07-26T19:28:01.243Z,26.80
2018-07-26T19:30:29.683Z,26.70
2018-07-26T19:32:57.929Z,26.60
2018-07-26T19:35:26.338Z,26.60
2018-07-26T19:37:54.576Z,26.60
2018-07-26T19:40:22.889Z,26.40
2018-07-26T19:45:19.294Z,26.20
2018-07-26T19:47:47.617Z,26.10
2018-07-26T19:50:15.884Z,25.90
2018-07-26T19:55:12.550Z,25.80
2018-07-26T19:57:41.150Z,25.60
2018-07-26T20:00:10.067Z,25.60
2018-07-26T20:02:39.137Z,25.40
2018-07-26T20:05:08.395Z,25.20
2018-07-26T20:07:36.726Z,25.10
2018-07-26T20:10:07.591Z,25.00
2018-07-26T20:12:35.913Z,24.90
2018-07-26T20:15:04.822Z,25.00
2018-07-26T20:17:33.127Z,24.80
2018-07-26T20:20:01.446Z,24.80
2018-07-26T20:22:29.808Z,24.70
2018-07-26T20:24:58.129Z,24.60
2018-07-26T20:27:26.369Z,24.50
2018-07-26T20:29:54.683Z,24.50
2018-07-26T20:32:23.023Z,24.40
2018-07-26T20:34:51.334Z,24.40
2018-07-26T20:37:19.625Z,24.40
2018-07-26T20:39:47.913Z,24.30
2018-07-26T20:42:16.224Z,24.20
2018-07-26T20:44:44.529Z,24.20
2018-07-26T20:47:12.770Z,24.10
2018-07-26T20:49:41.208Z,24.10
2018-07-26T20:52:09.586Z,24.00
2018-07-26T20:54:37.811Z,24.00
2018-07-26T20:57:06.060Z,24.00
2018-07-26T20:59:34.406Z,24.00
2018-07-26T21:02:02.734Z,23.90
2018-07-26T21:04:31.028Z,23.90
2018-07-26T21:06:59.334Z,23.80
2018-07-26T21:09:27.689Z,23.70
2018-07-26T21:11:55.982Z,23.80
2018-07-26T21:14:24.259Z,23.70
2018-07-26T21:16:52.626Z,23.80
2018-07-26T21:19:20.877Z,23.80
2018-07-26T21:21:54.778Z,23.90
2018-07-26T21:24:23.069Z,23.80
2018-07-26T21:26:53.243Z,23.70
2018-07-26T21:29:21.640Z,23.80
2018-07-26T21:31:50.061Z,23.70
2018-07-26T21:34:18.329Z,23.80
2018-07-26T21:36:46.588Z,23.70
2018-07-26T21:39:14.954Z,23.70
2018-07-26T21:41:43.280Z,23.70
2018-07-26T21:44:11.626Z,23.70
2018-07-26T21:46:39.884Z,23.70
2018-07-26T21:49:08.154Z,23.80
2018-07-26T21:51:36.473Z,23.80
2018-07-26T21:54:04.730Z,23.90
2018-07-26T21:56:33.010Z,23.90
2018-07-26T21:59:01.338Z,23.80
2018-07-26T22:01:29.704Z,23.80
2018-07-26T22:03:57.957Z,23.80
2018-07-26T22:06:26.262Z,23.80
2018-07-26T22:08:54.634Z,23.70
2018-07-26T22:11:22.947Z,23.70
2018-07-26T22:13:51.234Z,23.60
2018-07-26T22:16:19.548Z,23.60
2018-07-26T22:18:48.013Z,23.60
2018-07-26T22:21:16.303Z,23.60
2018-07-26T22:23:44.582Z,23.50
2018-07-26T22:26:12.924Z,23.50
2018-07-26T22:31:09.288Z,23.40
2018-07-26T22:33:37.660Z,23.40
2018-07-26T22:36:05.984Z,23.40
2018-07-26T22:38:34.324Z,23.30
2018-07-26T22:41:02.656Z,23.30
2018-07-26T22:43:31.012Z,23.20
2018-07-26T22:45:59.323Z,23.20
2018-07-26T22:48:27.587Z,23.10
2018-07-26T22:50:55.969Z,23.00
2018-07-26T22:53:24.243Z,22.90
2018-07-26T22:55:52.560Z,22.80
2018-07-26T22:58:22.866Z,22.80
2018-07-26T23:00:51.218Z,22.80
2018-07-26T23:03:19.489Z,22.70
2018-07-26T23:05:47.787Z,22.60
2018-07-26T23:08:16.065Z,22.50
2018-07-26T23:10:44.378Z,22.50
2018-07-26T23:13:12.686Z,22.40
2018-07-26T23:15:41.088Z,22.30
2018-07-26T23:18:09.337Z,22.30
2018-07-26T23:20:37.638Z,22.30
2018-07-26T23:23:06.137Z,22.20
2018-07-26T23:25:34.426Z,22.20
2018-07-26T23:28:02.699Z,22.10
2018-07-26T23:30:30.971Z,22.10
2018-07-26T23:32:59.313Z,22.00
2018-07-26T23:35:28.085Z,22.10
2018-07-26T23:37:56.433Z,21.90
2018-07-26T23:40:24.837Z,21.90
2018-07-26T23:42:53.116Z,21.90
2018-07-26T23:45:21.554Z,21.80
2018-07-26T23:47:49.841Z,21.70
2018-07-26T23:50:18.172Z,21.70
2018-07-26T23:52:46.584Z,21.50
2018-07-26T23:55:14.951Z,21.50
2018-07-26T23:57:43.238Z,21.40
